Time;durP1;ratioP1;P1;durP2;ratioP2;P2;SDS_P1;SDS_P2;PMS_P1;PMS_P2;Temp;Humidity;BMP_temperature;BMP_pressure;BME280_temperature;BME280_humidity;BME280_pressure;Samples;Min_cycle;Max_cycle;Signal;HPM_P1;HPM_P2
2021/03/17 00:00:22;;;;;;;33.90;7.82;;;;;;;18.15;36.09;103742.94;5050666;28;20028;-80
2021/03/17 00:02:48;;;;;;;39.08;9.95;;;;;;;18.06;36.31;103747.44;5054359;28;20029;-80
2021/03/17 00:05:17;;;;;;;40.42;10.50;;;;;;;18.10;36.10;103745.75;5052970;28;20039;-82
2021/03/17 00:07:43;;;;;;;29.02;7.25;;;;;;;18.00;36.46;103736.44;5053694;28;20137;-80
2021/03/17 00:10:09;;;;;;;28.70;7.05;;;;;;;18.01;36.28;103732.56;5052662;28;20784;-84
2021/03/17 00:12:35;;;;;;;26.40;7.65;;;;;;;17.93;36.74;103710.22;5053653;28;20024;-81
2021/03/17 00:15:00;;;;;;;38.95;9.10;;;;;;;17.75;36.93;103707.06;5053652;28;20141;-80
2021/03/17 00:17:26;;;;;;;33.40;8.48;;;;;;;17.92;36.80;103706.66;5058488;28;20109;-80
2021/03/17 00:19:51;;;;;;;30.70;8.93;;;;;;;17.82;37.05;103703.94;5055959;28;20518;-82
2021/03/17 00:22:17;;;;;;;23.80;8.15;;;;;;;17.91;36.98;103709.69;5056524;28;20039;-80
2021/03/17 00:24:42;;;;;;;29.85;8.25;;;;;;;17.61;37.74;103706.06;5054417;28;20044;-84
2021/03/17 00:27:08;;;;;;;31.20;8.00;;;;;;;17.90;36.91;103703.31;5053057;28;20067;-85
2021/03/17 00:29:34;;;;;;;39.70;9.00;;;;;;;17.95;37.03;103697.75;5057063;28;20048;-81
2021/03/17 00:31:59;;;;;;;35.10;9.15;;;;;;;17.64;37.62;103688.88;5055811;28;20071;-80
2021/03/17 00:34:25;;;;;;;33.22;8.55;;;;;;;17.89;37.14;103673.19;5052996;28;20021;-81
2021/03/17 00:36:50;;;;;;;43.35;10.05;;;;;;;17.85;37.13;103675.72;5051108;28;20034;-79
2021/03/17 00:39:16;;;;;;;38.35;9.07;;;;;;;17.90;36.96;103674.84;5056616;28;20056;-79
2021/03/17 00:41:42;;;;;;;38.15;10.63;;;;;;;17.95;36.86;103685.88;5056736;28;20139;-85
2021/03/17 00:44:07;;;;;;;24.00;7.95;;;;;;;17.92;37.02;103683.69;5056367;28;20039;-79
2021/03/17 00:46:33;;;;;;;31.85;9.43;;;;;;;17.83;37.12;103683.47;5056128;28;20394;-81
2021/03/17 00:48:58;;;;;;;31.60;7.45;;;;;;;17.94;36.65;103687.81;5057227;28;20613;-80
2021/03/17 00:51:24;;;;;;;28.65;7.75;;;;;;;17.71;37.34;103681.13;5058196;28;20035;-79
2021/03/17 00:53:50;;;;;;;25.58;8.68;;;;;;;17.57;37.72;103680.09;5047186;28;20083;-84
2021/03/17 00:56:16;;;;;;;33.38;8.55;;;;;;;17.52;37.61;103671.84;5055299;28;20047;-80
2021/03/17 00:58:41;;;;;;;30.95;10.82;;;;;;;17.71;37.35;103672.81;5057045;28;20021;-79
2021/03/17 01:01:07;;;;;;;27.50;9.38;;;;;;;17.75;37.06;103678.56;5054225;28;20032;-80
2021/03/17 01:03:33;;;;;;;36.97;9.75;;;;;;;17.76;37.14;103680.25;5050122;28;20067;-80
2021/03/17 01:05:58;;;;;;;36.35;10.35;;;;;;;17.78;37.29;103678.00;5053595;28;20033;-80
2021/03/17 01:08:24;;;;;;;30.42;8.40;;;;;;;17.70;37.39;103675.84;5057716;28;20028;-83
2021/03/17 01:10:49;;;;;;;26.55;7.57;;;;;;;17.71;37.17;103669.22;5053542;28;20024;-80
2021/03/17 01:13:16;;;;;;;37.58;10.07;;;;;;;17.70;37.00;103665.63;5054927;28;20497;-84
2021/03/17 01:15:44;;;;;;;27.85;7.50;;;;;;;17.76;36.95;103663.66;5048190;28;20903;-88
2021/03/17 01:18:11;;;;;;;24.35;7.53;;;;;;;17.64;37.11;103672.28;5055364;28;20023;-80
2021/03/17 01:20:38;;;;;;;30.42;8.60;;;;;;;17.65;36.96;103673.94;5051601;28;20040;-82
2021/03/17 01:23:04;;;;;;;27.55;7.40;;;;;;;17.60;37.22;103667.63;5051018;28;20029;-80
2021/03/17 01:25:42;;;;;;;31.70;8.57;;;;;;;17.54;37.44;103668.81;5054015;28;20441;-86
2021/03/17 01:28:10;;;;;;;31.25;10.00;;;;;;;17.52;37.20;103680.13;5053031;28;20032;-83
2021/03/17 01:30:42;;;;;;;27.58;7.93;;;;;;;17.48;37.15;103684.59;5053528;28;20029;-80
2021/03/17 01:33:09;;;;;;;28.73;7.63;;;;;;;17.44;37.18;103678.00;5053056;28;20064;-80
2021/03/17 01:35:35;;;;;;;21.95;7.03;;;;;;;17.28;37.47;103673.69;5053042;28;20083;-80
2021/03/17 01:38:00;;;;;;;30.08;8.25;;;;;;;17.23;37.54;103660.75;5054235;28;20032;-80
2021/03/17 01:40:28;;;;;;;29.73;8.27;;;;;;;17.24;37.42;103659.63;5054089;28;20024;-85
2021/03/17 01:42:54;;;;;;;23.20;7.35;;;;;;;17.05;37.82;103653.97;5052658;28;20380;-82
2021/03/17 01:45:21;;;;;;;26.98;8.25;;;;;;;17.28;37.18;103654.34;5052028;28;20040;-80
2021/03/17 01:47:48;;;;;;;20.08;7.30;;;;;;;17.16;37.54;103655.56;5053745;28;20021;-80
2021/03/17 01:50:28;;;;;;;27.10;8.18;;;;;;;17.26;37.34;103667.63;5053877;28;20421;-84
2021/03/17 01:52:55;;;;;;;26.27;7.38;;;;;;;17.10;37.62;103662.22;5050592;28;20033;-80
2021/03/17 01:55:21;;;;;;;26.02;6.85;;;;;;;17.07;37.73;103648.97;5053172;28;20021;-81
2021/03/17 01:57:48;;;;;;;34.70;7.35;;;;;;;17.11;37.58;103647.28;5052844;28;20040;-84
2021/03/17 02:00:16;;;;;;;28.55;7.00;;;;;;;17.05;37.57;103640.16;5052633;28;20021;-86
2021/03/17 02:02:48;;;;;;;26.42;7.00;;;;;;;16.95;37.66;103645.75;5053401;28;20032;-79
2021/03/17 02:05:16;;;;;;;25.90;7.85;;;;;;;16.82;38.03;103629.81;5053646;28;20020;-87
2021/03/17 02:07:42;;;;;;;28.02;8.60;;;;;;;16.58;38.26;103621.34;5052665;28;20025;-87
2021/03/17 02:10:11;;;;;;;27.52;6.90;;;;;;;16.75;38.06;103626.53;5053417;28;20387;-80
2021/03/17 02:12:39;;;;;;;22.98;7.63;;;;;;;16.68;38.34;103618.53;5053208;28;20029;-80
2021/03/17 02:15:13;;;;;;;26.38;7.82;;;;;;;16.59;38.43;103614.72;5051952;28;20029;-81
2021/03/17 02:17:42;;;;;;;30.75;8.25;;;;;;;16.77;38.12;103613.25;5052521;28;20111;-80
2021/03/17 02:20:28;;;;;;;30.38;8.48;;;;;;;16.73;38.13;103620.47;5052782;28;20419;-84
2021/03/17 02:22:59;;;;;;;25.90;7.32;;;;;;;16.63;38.33;103613.88;5052059;28;20040;-81
2021/03/17 02:25:42;;;;;;;23.35;7.35;;;;;;;16.53;38.62;103591.84;5051286;28;20482;-84
2021/03/17 02:28:29;;;;;;;27.00;6.93;;;;;;;16.58;38.61;103586.28;5051893;28;20099;-80
2021/03/17 02:31:32;;;;;;;24.88;7.32;;;;;;;16.29;39.52;103585.34;5052653;28;20086;-80
2021/03/17 02:34:04;;;;;;;25.83;9.05;;;;;;;16.43;39.14;103586.38;5052235;28;20533;-81
2021/03/17 02:36:46;;;;;;;24.55;7.50;;;;;;;16.29;39.45;103591.69;5051862;28;20035;-82
2021/03/17 02:39:37;;;;;;;38.30;8.05;;;;;;;16.17;39.74;103599.47;5052590;28;20602;-86
2021/03/17 02:42:14;;;;;;;30.55;8.68;;;;;;;16.16;39.95;103602.50;5052737;28;20127;-85
2021/03/17 02:44:52;;;;;;;25.38;8.10;;;;;;;16.21;39.70;103613.50;5048408;28;20070;-81
2021/03/17 02:47:18;;;;;;;31.58;8.52;;;;;;;16.25;39.55;103609.94;5052268;28;20032;-86
2021/03/17 02:49:51;;;;;;;29.92;8.43;;;;;;;16.22;39.80;103609.66;5052928;28;20024;-81
2021/03/17 02:52:18;;;;;;;22.90;7.22;;;;;;;15.99;40.19;103617.44;5055049;28;20507;-80
2021/03/17 02:54:47;;;;;;;33.15;8.55;;;;;;;16.02;39.73;103618.81;5050451;28;20021;-80
2021/03/17 02:57:25;;;;;;;29.58;7.80;;;;;;;15.79;40.22;103618.34;5051770;28;21384;-81
2021/03/17 02:59:53;;;;;;;27.58;7.85;;;;;;;15.90;39.96;103621.06;5055587;28;20021;-81
2021/03/17 03:02:20;;;;;;;32.95;7.88;;;;;;;15.87;40.02;103630.72;5054873;28;20128;-81
2021/03/17 03:04:47;;;;;;;29.42;7.50;;;;;;;15.97;39.78;103632.63;5053820;28;20039;-80
2021/03/17 03:07:13;;;;;;;29.60;7.43;;;;;;;15.82;40.14;103630.72;5052492;28;20020;-81
2021/03/17 03:09:39;;;;;;;21.63;6.65;;;;;;;15.88;39.92;103632.38;5054331;28;20017;-80
2021/03/17 03:12:06;;;;;;;28.45;7.95;;;;;;;15.94;39.87;103622.97;5051305;28;20672;-80
2021/03/17 03:14:33;;;;;;;29.70;7.75;;;;;;;16.05;39.27;103643.91;5047921;28;20024;-80
2021/03/17 03:17:01;;;;;;;30.25;8.65;;;;;;;15.92;39.52;103652.75;5048445;28;20047;-80
2021/03/17 03:19:32;;;;;;;28.48;8.77;;;;;;;15.90;39.44;103656.91;5049797;28;20119;-79
2021/03/17 03:21:59;;;;;;;29.13;9.25;;;;;;;15.96;39.34;103653.03;5052826;28;20490;-82
2021/03/17 03:24:26;;;;;;;25.95;8.20;;;;;;;15.92;39.47;103658.28;5048159;28;20646;-83
2021/03/17 03:26:58;;;;;;;23.13;8.35;;;;;;;15.93;39.08;103653.59;5058407;28;20025;-82
2021/03/17 03:29:27;;;;;;;24.63;7.05;;;;;;;15.85;39.30;103641.19;5056609;28;20035;-82
2021/03/17 03:31:54;;;;;;;28.77;7.75;;;;;;;15.75;39.39;103638.47;5055176;28;20032;-80
2021/03/17 03:34:20;;;;;;;31.85;7.57;;;;;;;15.68;39.44;103624.13;5050303;28;20029;-80
2021/03/17 03:36:45;;;;;;;29.17;7.45;;;;;;;15.65;39.67;103625.53;5051923;28;20021;-79
2021/03/17 03:39:13;;;;;;;32.50;8.85;;;;;;;15.62;39.45;103639.84;5051477;28;20086;-86
2021/03/17 03:41:39;;;;;;;29.40;8.18;;;;;;;15.55;39.78;103626.31;5050619;28;20025;-83
2021/03/17 03:44:06;;;;;;;27.58;7.85;;;;;;;15.47;39.91;103618.59;5051282;28;20048;-85
2021/03/17 03:46:33;;;;;;;22.52;6.93;;;;;;;15.58;39.70;103618.59;5052185;28;20495;-87
2021/03/17 03:49:01;;;;;;;30.50;8.27;;;;;;;15.66;40.08;103618.06;5052866;28;20048;-84
2021/03/17 03:51:27;;;;;;;30.77;7.22;;;;;;;15.59;39.79;103614.75;5050780;28;20391;-84
2021/03/17 03:54:13;;;;;;;34.50;8.73;;;;;;;15.57;39.88;103620.53;5049344;28;20624;-86
2021/03/17 03:56:53;;;;;;;29.40;7.00;;;;;;;15.50;40.19;103618.06;5050907;28;20762;-79
2021/03/17 03:59:32;;;;;;;29.88;8.43;;;;;;;15.68;39.63;103626.88;5053567;28;20020;-85
2021/03/17 04:02:01;;;;;;;26.60;7.45;;;;;;;15.64;39.79;103620.25;5053222;28;20079;-81
2021/03/17 04:04:37;;;;;;;29.97;8.27;;;;;;;15.27;40.67;103633.22;5055540;28;21462;-85
2021/03/17 04:07:04;;;;;;;43.47;8.45;;;;;;;15.29;40.33;103627.44;5054055;28;20013;-80
2021/03/17 04:09:46;;;;;;;30.38;8.15;;;;;;;15.25;40.52;103631.81;5053106;28;20033;-80
2021/03/17 04:12:13;;;;;;;29.65;6.80;;;;;;;15.30;40.31;103633.75;5047675;28;20031;-82
2021/03/17 04:14:41;;;;;;;34.45;7.72;;;;;;;15.44;39.81;103646.72;5054030;28;20091;-86
2021/03/17 04:17:42;;;;;;;32.65;8.38;;;;;;;15.29;40.13;103645.88;5054234;28;20025;-81
2021/03/17 04:20:12;;;;;;;35.35;8.65;;;;;;;15.29;39.88;103646.72;5030003;28;20044;-80
2021/03/17 04:22:39;;;;;;;20.92;6.03;;;;;;;15.27;40.16;103646.16;5045097;28;20124;-80
2021/03/17 04:25:09;;;;;;;20.33;6.47;;;;;;;15.25;40.01;103642.84;5053466;28;20641;-81
2021/03/17 04:27:36;;;;;;;26.85;8.93;;;;;;;15.26;40.07;103650.84;5051239;28;20024;-85
2021/03/17 04:30:04;;;;;;;42.20;8.07;;;;;;;15.37;39.54;103645.34;5052764;28;20078;-86
2021/03/17 04:32:31;;;;;;;25.33;7.72;;;;;;;15.29;39.75;103648.66;5054353;28;20086;-80
2021/03/17 04:34:58;;;;;;;30.40;7.35;;;;;;;15.33;39.79;103645.03;5052796;28;20027;-84
2021/03/17 04:37:28;;;;;;;27.95;7.45;;;;;;;15.25;39.50;103646.41;5053698;28;20382;-81
2021/03/17 04:39:54;;;;;;;32.28;7.43;;;;;;;15.35;39.50;103642.03;5053012;28;20029;-82
2021/03/17 04:42:20;;;;;;;30.90;8.65;;;;;;;15.36;39.60;103654.72;5053518;28;20041;-81
2021/03/17 04:44:48;;;;;;;26.85;7.65;;;;;;;15.30;39.42;103651.13;5054291;28;20027;-80
2021/03/17 04:47:15;;;;;;;33.88;8.05;;;;;;;15.31;39.49;103654.69;5053330;28;20024;-81
2021/03/17 04:49:45;;;;;;;32.83;7.55;;;;;;;15.18;39.76;103662.38;5052980;28;20028;-81
2021/03/17 04:52:15;;;;;;;31.10;6.85;;;;;;;15.15;39.74;103659.38;5054443;28;20121;-79
2021/03/17 04:54:41;;;;;;;24.85;6.88;;;;;;;15.03;40.17;103658.78;5048023;28;20028;-80
2021/03/17 04:57:29;;;;;;;31.45;9.07;;;;;;;15.10;39.66;103662.09;5057050;28;20269;-82
2021/03/17 04:59:56;;;;;;;34.13;8.80;;;;;;;15.09;39.90;103665.97;5056654;28;20094;-81
2021/03/17 05:02:26;;;;;;;30.42;7.72;;;;;;;15.10;39.60;103673.94;5054706;28;21771;-80
2021/03/17 05:04:53;;;;;;;33.70;9.38;;;;;;;15.09;39.86;103679.72;5055847;28;20029;-80
2021/03/17 05:07:20;;;;;;;26.05;7.07;;;;;;;15.05;39.81;103681.38;5056339;28;21132;-84
2021/03/17 05:09:47;;;;;;;25.80;7.05;;;;;;;15.10;39.64;103678.63;5054244;28;20439;-85
2021/03/17 05:12:16;;;;;;;27.85;7.97;;;;;;;15.13;39.50;103680.84;5055316;28;20475;-81
2021/03/17 05:14:44;;;;;;;20.35;6.97;;;;;;;15.06;39.68;103681.09;5055429;28;20382;-80
2021/03/17 05:17:11;;;;;;;28.15;7.18;;;;;;;15.07;39.56;103691.03;5055323;28;20035;-80
2021/03/17 05:19:38;;;;;;;27.85;7.07;;;;;;;15.09;39.60;103676.97;5052593;28;20047;-81
2021/03/17 05:22:06;;;;;;;25.95;5.82;;;;;;;15.05;39.62;103675.88;5052584;28;20563;-80
2021/03/17 05:24:32;;;;;;;37.58;7.82;;;;;;;14.97;39.76;103669.81;5050706;28;20021;-81
2021/03/17 05:27:02;;;;;;;26.00;6.82;;;;;;;14.91;39.87;103670.88;5056754;28;20105;-80
2021/03/17 05:29:28;;;;;;;24.15;7.63;;;;;;;14.90;39.82;103677.50;5053465;28;20036;-80
2021/03/17 05:31:55;;;;;;;30.25;8.20;;;;;;;14.87;39.76;103668.94;5055725;28;20123;-85
2021/03/17 05:34:21;;;;;;;27.58;8.02;;;;;;;14.89;39.93;103661.25;5056813;28;20116;-81
2021/03/17 05:36:47;;;;;;;26.13;7.70;;;;;;;14.80;40.05;103668.34;5056467;28;20433;-83
2021/03/17 05:39:13;;;;;;;25.95;7.78;;;;;;;14.75;40.19;103666.44;5054893;28;20143;-80
2021/03/17 05:41:39;;;;;;;28.85;6.28;;;;;;;14.87;39.87;103657.91;5054180;28;20031;-82
2021/03/17 05:44:06;;;;;;;27.80;7.97;;;;;;;14.80;39.87;103668.34;5055371;28;20143;-79
2021/03/17 05:46:33;;;;;;;23.20;8.98;;;;;;;14.81;39.97;103670.88;5054265;28;20017;-79
2021/03/17 05:48:59;;;;;;;24.55;7.03;;;;;;;14.71;39.91;103663.38;5056533;28;20031;-80
2021/03/17 05:51:25;;;;;;;33.42;9.10;;;;;;;14.83;39.92;103665.09;5053623;28;20064;-80
2021/03/17 05:53:51;;;;;;;31.25;7.70;;;;;;;14.92;39.45;103658.78;5050184;28;20634;-82
2021/03/17 05:56:17;;;;;;;26.33;8.48;;;;;;;14.71;40.16;103668.06;5055018;28;20020;-80
2021/03/17 05:58:43;;;;;;;43.00;10.32;;;;;;;14.78;39.77;103665.88;5051310;28;20021;-79
2021/03/17 06:01:16;;;;;;;28.17;7.28;;;;;;;14.68;40.01;103657.59;5053693;28;20024;-80
2021/03/17 06:03:43;;;;;;;31.75;7.93;;;;;;;14.79;39.67;103651.03;5054784;28;20024;-80
2021/03/17 06:06:10;;;;;;;27.60;8.40;;;;;;;14.78;39.78;103674.13;5052384;28;20035;-80
2021/03/17 06:08:43;;;;;;;29.77;8.38;;;;;;;14.60;40.26;103669.97;5054304;28;20486;-81
2021/03/17 06:11:13;;;;;;;26.73;7.68;;;;;;;14.56;40.42;103660.56;5054908;28;20039;-79
2021/03/17 06:13:50;;;;;;;25.02;6.90;;;;;;;14.30;40.70;103658.78;5054675;28;20059;-80
2021/03/17 06:16:19;;;;;;;25.77;7.40;;;;;;;14.55;40.27;103652.59;5053536;28;20028;-81
2021/03/17 06:18:55;;;;;;;25.42;6.43;;;;;;;14.44;40.27;103649.78;5051021;28;20022;-80
2021/03/17 06:21:21;;;;;;;21.30;6.68;;;;;;;14.53;40.27;103641.88;5054083;28;20045;-82
2021/03/17 06:23:55;;;;;;;22.25;6.82;;;;;;;14.46;40.17;103635.78;5053172;28;20039;-84
2021/03/17 06:26:21;;;;;;;23.63;7.78;;;;;;;14.44;40.41;103636.03;5052284;28;20111;-79
2021/03/17 06:28:48;;;;;;;27.85;5.72;;;;;;;14.47;40.42;103631.94;5052053;28;20107;-86
2021/03/17 06:31:14;;;;;;;24.88;7.03;;;;;;;14.30;40.62;103642.28;5053369;28;20111;-81
2021/03/17 06:33:43;;;;;;;25.45;5.95;;;;;;;14.22;41.06;103638.13;5052283;28;20013;-80
2021/03/17 06:36:17;;;;;;;28.63;7.57;;;;;;;14.21;41.03;103650.22;5052416;28;20051;-85
2021/03/17 06:38:43;;;;;;;22.10;6.25;;;;;;;14.05;41.44;103634.72;5053215;28;20047;-84
2021/03/17 06:41:10;;;;;;;24.70;7.40;;;;;;;14.38;40.61;103623.34;5051222;28;20499;-83
2021/03/17 06:43:49;;;;;;;29.98;7.53;;;;;;;14.33;40.97;103633.50;5052129;28;20059;-80
2021/03/17 06:46:19;;;;;;;24.63;7.03;;;;;;;14.35;41.02;103623.88;5055108;28;20027;-80
2021/03/17 06:48:45;;;;;;;23.70;7.00;;;;;;;14.37;40.95;103610.69;5051430;28;20107;-79
2021/03/17 06:51:13;;;;;;;27.42;7.85;;;;;;;14.37;41.09;103615.38;5050954;28;20462;-79
2021/03/17 06:53:41;;;;;;;27.92;7.18;;;;;;;14.08;41.74;103612.19;5051902;28;20163;-80
2021/03/17 06:56:21;;;;;;;31.33;8.38;;;;;;;14.30;41.33;103617.53;5050664;28;20028;-84
2021/03/17 06:58:51;;;;;;;25.25;6.97;;;;;;;14.42;41.26;103623.63;5051475;28;20406;-79
2021/03/17 07:01:36;;;;;;;19.75;6.03;;;;;;;14.22;41.55;103615.31;5050112;28;20130;-80
2021/03/17 07:04:11;;;;;;;26.45;6.72;;;;;;;14.55;40.97;103619.56;5049885;28;20028;-77
2021/03/17 07:07:01;;;;;;;20.75;7.50;;;;;;;14.37;41.67;103609.88;5053173;28;20025;-79
2021/03/17 07:09:29;;;;;;;35.40;7.32;;;;;;;14.63;41.02;103595.09;5027876;28;20040;-79
2021/03/17 07:12:13;;;;;;;24.23;6.45;;;;;;;14.80;40.66;103594.03;5053086;28;20032;-83
2021/03/17 07:14:40;;;;;;;31.15;6.43;;;;;;;14.78;40.77;103588.81;5054415;28;20024;-77
2021/03/17 07:17:25;;;;;;;23.23;7.15;;;;;;;14.70;40.97;103581.09;5051004;28;20047;-80
2021/03/17 07:19:51;;;;;;;22.10;6.43;;;;;;;14.74;41.04;103576.72;5052435;28;20139;-79
2021/03/17 07:22:19;;;;;;;22.05;7.93;;;;;;;15.01;40.45;103567.38;5052662;28;20137;-79
2021/03/17 07:24:47;;;;;;;21.60;6.30;;;;;;;14.92;40.82;103567.91;5047287;28;20522;-77
2021/03/17 07:27:27;;;;;;;23.77;7.50;;;;;;;14.99;40.69;103553.88;5051337;28;20108;-80
2021/03/17 07:30:02;;;;;;;24.83;7.05;;;;;;;15.06;40.80;103553.63;5050787;28;20431;-75
2021/03/17 07:32:48;;;;;;;23.55;6.32;;;;;;;15.12;40.84;103560.78;5052358;28;20028;-77
2021/03/17 07:35:27;;;;;;;26.60;7.93;;;;;;;15.22;40.63;103558.84;5049934;28;21299;-78
2021/03/17 07:38:14;;;;;;;21.65;6.47;;;;;;;15.33;40.43;103559.63;5048318;28;20033;-77
2021/03/17 07:40:45;;;;;;;25.55;7.07;;;;;;;15.29;40.72;103553.06;5050871;28;20041;-79
2021/03/17 07:43:12;;;;;;;18.67;5.90;;;;;;;15.46;40.45;103544.47;5049526;28;20045;-77
2021/03/17 07:45:41;;;;;;;30.90;6.47;;;;;;;15.43;40.79;103548.63;5050480;28;21597;-78
2021/03/17 07:48:10;;;;;;;21.90;6.57;;;;;;;15.66;40.41;103544.47;5053057;28;20024;-77
2021/03/17 07:50:37;;;;;;;23.17;6.28;;;;;;;15.85;40.08;103541.94;5053085;28;20254;-76
2021/03/17 07:53:07;;;;;;;21.10;6.65;;;;;;;16.01;39.83;103542.69;5051021;28;20021;-75
2021/03/17 07:55:39;;;;;;;25.25;6.03;;;;;;;16.06;39.55;103531.66;5049895;28;20049;-76
2021/03/17 07:58:06;;;;;;;18.48;6.45;;;;;;;16.27;39.70;103530.44;5048266;28;20029;-82
2021/03/17 08:00:32;;;;;;;24.27;6.35;;;;;;;16.41;39.52;103527.06;5049607;28;20426;-76
2021/03/17 08:02:58;;;;;;;22.98;6.85;;;;;;;16.50;39.07;103536.38;5049487;28;20041;-77
2021/03/17 08:05:24;;;;;;;18.58;5.53;;;;;;;16.50;39.27;103531.69;5050525;28;20808;-77
2021/03/17 08:07:51;;;;;;;22.55;5.90;;;;;;;16.64;39.21;103531.88;5049217;28;20036;-78
2021/03/17 08:10:17;;;;;;;33.60;7.25;;;;;;;16.74;39.37;103537.34;5047989;28;20029;-77
2021/03/17 08:12:45;;;;;;;16.85;5.57;;;;;;;16.80;38.91;103544.50;5049391;28;20541;-76
2021/03/17 08:15:14;;;;;;;24.77;6.55;;;;;;;16.81;38.48;103546.13;5054028;28;20542;-77
2021/03/17 08:17:41;;;;;;;16.80;6.07;;;;;;;16.92;38.52;103555.97;5051795;28;20025;-71
2021/03/17 08:20:20;;;;;;;24.73;6.80;;;;;;;16.92;38.59;103550.47;5053560;28;20635;-69
2021/03/17 08:22:48;;;;;;;22.50;6.10;;;;;;;16.89;38.76;103545.53;5051816;28;20502;-68
2021/03/17 08:25:35;;;;;;;26.05;6.35;;;;;;;16.87;38.80;103541.41;5050242;28;20028;-70
2021/03/17 08:28:21;;;;;;;26.33;7.07;;;;;;;16.90;38.80;103549.09;5053665;28;20024;-67
2021/03/17 08:30:49;;;;;;;19.42;5.57;;;;;;;16.78;39.32;103543.16;5055037;28;20410;-69
2021/03/17 08:33:31;;;;;;;25.65;6.93;;;;;;;16.92;38.99;103544.94;5057019;28;20036;-82
2021/03/17 08:36:10;;;;;;;20.88;6.82;;;;;;;17.08;38.68;103542.91;5049082;28;20113;-78
2021/03/17 08:38:57;;;;;;;24.90;6.53;;;;;;;16.97;38.97;103535.81;5052301;28;20036;-80
2021/03/17 08:41:46;;;;;;;26.58;5.72;;;;;;;16.69;39.67;103545.66;5056616;28;20032;-79
2021/03/17 08:44:23;;;;;;;15.93;5.57;;;;;;;16.55;39.97;103541.84;5055527;28;20137;-75
2021/03/17 08:46:50;;;;;;;22.02;7.10;;;;;;;16.85;39.31;103533.44;5055512;28;20025;-74
2021/03/17 08:49:35;;;;;;;18.70;6.35;;;;;;;16.92;39.32;103535.81;5056089;28;20441;-75
2021/03/17 08:52:07;;;;;;;16.80;6.03;;;;;;;16.95;39.54;103524.22;5056547;28;20703;-74
2021/03/17 08:54:33;;;;;;;25.80;7.03;;;;;;;16.82;40.03;103538.69;5057651;28;20029;-74
2021/03/17 08:57:07;;;;;;;18.80;5.85;;;;;;;16.86;39.65;103576.50;5057974;28;20025;-74
2021/03/17 08:59:39;;;;;;;23.77;6.32;;;;;;;16.68;40.10;103574.34;5056550;28;20107;-76
2021/03/17 09:02:16;;;;;;;17.25;6.20;;;;;;;16.61;40.15;103576.59;5042732;28;20033;-78
2021/03/17 09:04:46;;;;;;;14.30;6.38;;;;;;;16.42;40.70;103572.88;5055530;28;20107;-75
2021/03/17 09:07:12;;;;;;;;;;;;;;;16.27;41.37;103582.03;5055647;28;20024;-80
2021/03/17 09:09:54;;;;;;;18.85;7.05;;;;;;;16.51;40.66;103587.72;5053457;28;19924;-81
2021/03/17 09:12:26;;;;;;;19.80;6.90;;;;;;;16.53;40.99;103588.25;5053199;28;20035;-78
2021/03/17 09:15:13;;;;;;;19.63;6.93;;;;;;;16.76;40.54;103606.09;5053618;28;20166;-79
2021/03/17 09:17:47;;;;;;;15.95;6.63;;;;;;;16.78;41.00;103603.88;5052296;28;20174;-82
2021/03/17 09:20:32;;;;;;;16.88;6.97;;;;;;;16.56;41.28;103601.50;5053830;28;20055;-81
2021/03/17 09:22:57;;;;;;;21.52;7.40;;;;;;;16.41;41.44;103598.81;5054968;28;20054;-84
2021/03/17 09:25:33;;;;;;;23.05;6.63;;;;;;;17.00;40.54;103603.44;5061789;28;20100;-82
2021/03/17 09:28:08;;;;;;;16.23;6.72;;;;;;;17.20;40.25;103612.41;5082885;28;20033;-80
2021/03/17 09:30:41;;;;;;;25.73;7.35;;;;;;;17.75;39.40;103618.56;5052595;28;20029;-78
2021/03/17 09:33:11;;;;;;;56.53;9.10;;;;;;;17.90;39.28;103625.88;5051190;28;20032;-83
2021/03/17 09:35:37;;;;;;;;;;;;;;;17.87;39.75;103632.00;5053526;28;20025;-78
2021/03/17 09:38:07;;;;;;;23.23;6.88;;;;;;;17.93;39.41;103625.31;5052063;28;20011;-81
2021/03/17 09:40:44;;;;;;;;;;;;;;;18.08;39.65;103627.06;5052018;28;20025;-80
2021/03/17 09:43:55;;;;;;;24.05;6.50;;;;;;;18.44;38.79;103624.69;5050958;28;20363;-86
2021/03/17 09:46:36;;;;;;;20.90;7.43;;;;;;;18.72;38.47;103614.63;5007712;28;20049;-79
2021/03/17 09:49:09;;;;;;;20.40;6.45;;;;;;;18.80;38.15;103627.81;5049634;28;20087;-81
2021/03/17 09:51:45;;;;;;;16.23;5.30;;;;;;;18.91;38.12;103624.91;5055662;28;20494;-79
2021/03/17 09:54:12;;;;;;;21.38;6.32;;;;;;;18.38;39.08;103628.66;5060801;28;20060;-80
2021/03/17 09:56:57;;;;;;;35.17;8.15;;;;;;;18.89;38.02;103627.13;5056079;28;20111;-89
2021/03/17 09:59:29;;;;;;;24.50;7.63;;;;;;;19.01;38.09;103621.97;5060868;28;20078;-76
2021/03/17 10:01:57;;;;;;;25.35;6.55;;;;;;;19.18;37.70;103619.47;5057418;28;20035;-81
2021/03/17 10:04:34;;;;;;;29.17;9.15;;;;;;;19.18;37.77;103615.88;5055840;28;20184;-76
2021/03/17 10:07:03;;;;;;;28.80;8.85;;;;;;;19.39;37.48;103615.22;5052658;28;20032;-83
2021/03/17 10:09:30;;;;;;;18.38;6.25;;;;;;;19.36;37.70;103615.03;5051444;28;20032;-83
2021/03/17 10:12:09;;;;;;;23.98;6.90;;;;;;;19.51;37.09;103619.50;5057424;28;20028;-82
2021/03/17 10:14:43;;;;;;;29.40;7.88;;;;;;;19.23;37.55;103616.63;5056288;28;20028;-84
2021/03/17 10:17:09;;;;;;;30.92;7.82;;;;;;;19.50;37.11;103613.13;5062580;28;20021;-83
2021/03/17 10:19:37;;;;;;;18.88;6.35;;;;;;;19.69;36.87;103618.63;5049746;28;20025;-73
2021/03/17 10:22:04;;;;;;;29.15;7.78;;;;;;;19.82;36.82;103617.00;5061467;28;20116;-79
2021/03/17 10:24:50;;;;;;;19.15;7.22;;;;;;;19.81;36.82;103613.41;5060479;28;20038;-80
2021/03/17 10:27:34;;;;;;;21.67;6.28;;;;;;;19.83;36.63;103615.88;5060207;28;20081;-87
2021/03/17 10:30:10;;;;;;;21.60;7.15;;;;;;;19.70;36.66;103608.34;5058628;28;20053;-80
2021/03/17 10:32:38;;;;;;;31.75;7.15;;;;;;;19.51;37.13;103614.75;5057387;28;20033;-78
2021/03/17 10:35:10;;;;;;;26.35;7.05;;;;;;;19.67;36.67;103607.00;5062688;28;20032;-80
2021/03/17 10:37:36;;;;;;;22.92;6.57;;;;;;;19.85;36.87;103595.00;5061204;28;20021;-78
2021/03/17 10:40:10;;;;;;;14.77;4.88;;;;;;;19.68;37.16;103592.84;5060121;28;20028;-78
2021/03/17 10:42:43;;;;;;;15.82;5.18;;;;;;;19.69;37.13;103585.34;5057078;28;20078;-78
2021/03/17 10:45:23;;;;;;;22.85;7.13;;;;;;;19.89;36.73;103578.56;5058815;28;20379;-77
2021/03/17 10:47:49;;;;;;;25.05;5.97;;;;;;;19.99;36.96;103574.75;5057466;28;20033;-80
2021/03/17 10:50:35;;;;;;;16.27;5.20;;;;;;;19.87;37.29;103575.25;5061870;28;20130;-81
2021/03/17 10:53:13;;;;;;;19.25;5.80;;;;;;;20.15;36.82;103562.22;5057072;28;20035;-77
2021/03/17 10:55:39;;;;;;;13.20;5.43;;;;;;;20.25;36.61;103564.75;5049800;28;20435;-77
2021/03/17 10:58:09;;;;;;;18.88;6.03;;;;;;;20.55;36.49;103585.50;5051417;28;20067;-76
2021/03/17 11:00:35;;;;;;;28.83;10.32;;;;;;;21.04;35.74;103592.13;5050410;28;20108;-77
2021/03/17 11:03:01;;;;;;;29.65;8.35;;;;;;;21.10;35.72;103581.72;5051102;28;20116;-81
2021/03/17 11:05:31;;;;;;;23.27;7.10;;;;;;;21.25;35.84;103592.44;5053573;28;20037;-83
2021/03/17 11:08:11;;;;;;;39.00;9.82;;;;;;;21.35;35.53;103600.56;5060673;28;20035;-81
2021/03/17 11:10:46;;;;;;;17.33;5.28;;;;;;;21.50;35.24;103600.16;5061241;28;20021;-81
2021/03/17 11:13:11;;;;;;;23.45;5.90;;;;;;;21.68;34.85;103595.47;5049452;28;20033;-81
2021/03/17 11:15:47;;;;;;;14.07;4.80;;;;;;;21.83;34.01;103602.59;5050106;28;20082;-82
2021/03/17 11:18:48;;;;;;;21.77;6.80;;;;;;;21.72;32.96;103612.38;5050571;28;20116;-80
2021/03/17 11:21:23;;;;;;;17.83;6.15;;;;;;;22.18;32.97;103611.09;5045584;28;20322;-80
2021/03/17 11:23:50;;;;;;;21.17;5.18;;;;;;;22.14;32.97;103605.34;5047254;28;20487;-81
2021/03/17 11:26:21;;;;;;;14.85;5.10;;;;;;;22.15;32.65;103605.06;5049170;28;20127;-83
2021/03/17 11:28:47;;;;;;;15.32;5.78;;;;;;;22.26;32.67;103597.19;5049728;28;20040;-81
2021/03/17 11:31:25;;;;;;;13.80;4.90;;;;;;;22.39;32.41;103599.03;5048154;28;21385;-79
2021/03/17 11:33:51;;;;;;;19.15;5.43;;;;;;;22.33;32.34;103597.53;5049163;28;20025;-79